Time;durP1;ratioP1;P1;durP2;ratioP2;P2;SDS_P1;SDS_P2;PMS_P1;PMS_P2;Temp;Humidity;BMP_temperature;BMP_pressure;BME280_temperature;BME280_humidity;BME280_pressure;Samples;Min_cycle;Max_cycle;Signal;HPM_P1;HPM_P2
2021/12/10 00:00:44;;;;;;;4.97;3.15;;;2.90;99.90;;;;;;494003;241;27543;-74
2021/12/10 00:02:46;;;;;;;7.72;3.20;;;2.90;99.90;;;;;;494017;241;27478;-75
2021/12/10 00:04:47;;;;;;;9.15;3.35;;;2.90;99.90;;;;;;493973;241;27498;-76
2021/12/10 00:06:48;;;;;;;6.80;2.80;;;2.90;99.90;;;;;;493999;241;27488;-75
2021/12/10 00:08:49;;;;;;;5.90;3.03;;;2.90;99.90;;;;;;493988;241;27525;-74
2021/12/10 00:10:51;;;;;;;6.20;3.85;;;2.90;99.90;;;;;;493970;241;27527;-75
2021/12/10 00:12:52;;;;;;;6.05;3.42;;;2.80;99.90;;;;;;494013;241;27509;-75
2021/12/10 00:14:54;;;;;;;7.18;3.20;;;2.90;99.90;;;;;;493966;241;27588;-74
2021/12/10 00:16:54;;;;;;;6.75;2.97;;;2.80;99.90;;;;;;493934;241;27593;-74
2021/12/10 00:19:09;;;;;;;7.82;3.45;;;2.80;99.90;;;;;;494001;241;27521;-75
2021/12/10 00:20:58;;;;;;;5.12;2.90;;;2.90;99.90;;;;;;492854;241;28684;-75
2021/12/10 00:22:58;;;;;;;5.95;2.83;;;2.90;99.90;;;;;;493975;241;27898;-74
2021/12/10 00:24:59;;;;;;;9.25;2.90;;;2.90;99.90;;;;;;494015;241;28044;-75
2021/12/10 00:27:04;;;;;;;10.43;3.08;;;2.90;99.90;;;;;;493988;241;27481;-75
2021/12/10 00:29:02;;;;;;;6.75;2.62;;;2.90;99.90;;;;;;493738;241;27509;-75
2021/12/10 00:31:14;;;;;;;3.53;2.55;;;2.90;99.90;;;;;;494005;241;27491;-74
2021/12/10 00:33:10;;;;;;;6.30;3.00;;;2.90;99.90;;;;;;493106;241;27465;-75
2021/12/10 00:35:06;;;;;;;4.37;2.60;;;2.90;99.90;;;;;;493568;241;27524;-74
2021/12/10 00:37:07;;;;;;;3.40;2.40;;;2.90;99.90;;;;;;494024;241;27481;-75
2021/12/10 00:39:08;;;;;;;3.20;2.30;;;2.90;99.90;;;;;;494002;241;27513;-75
2021/12/10 00:41:09;;;;;;;6.85;2.40;;;2.90;99.90;;;;;;494027;241;27597;-75
2021/12/10 00:43:11;;;;;;;3.65;2.40;;;2.90;99.90;;;;;;494019;241;27477;-75
2021/12/10 00:45:12;;;;;;;4.35;2.30;;;2.90;99.90;;;;;;494005;241;27572;-74
2021/12/10 00:47:13;;;;;;;2.97;2.60;;;2.90;99.90;;;;;;493994;241;28020;-75
2021/12/10 00:49:14;;;;;;;6.93;2.60;;;2.90;99.90;;;;;;493958;241;28037;-75
2021/12/10 00:51:16;;;;;;;3.55;2.35;;;2.90;99.90;;;;;;493994;241;28731;-75
2021/12/10 00:53:17;;;;;;;3.87;2.30;;;2.80;99.90;;;;;;494027;241;28154;-75
2021/12/10 00:55:18;;;;;;;4.40;2.35;;;2.80;99.90;;;;;;493980;241;27518;-74
2021/12/10 00:57:20;;;;;;;4.85;2.42;;;2.80;99.90;;;;;;494010;237;27505;-75
2021/12/10 00:59:21;;;;;;;2.45;2.22;;;2.80;99.90;;;;;;493950;237;27538;-74
2021/12/10 01:01:24;;;;;;;3.37;2.17;;;2.80;99.90;;;;;;493977;241;27462;-75
2021/12/10 01:03:23;;;;;;;8.13;2.35;;;2.90;99.90;;;;;;493905;241;27952;-75
2021/12/10 01:05:25;;;;;;;4.10;2.35;;;2.90;99.90;;;;;;494007;241;28068;-74
2021/12/10 01:07:26;;;;;;;6.90;2.40;;;2.90;99.90;;;;;;493991;241;29099;-74
2021/12/10 01:09:27;;;;;;;3.45;2.20;;;2.90;99.90;;;;;;493978;241;27975;-74
2021/12/10 01:11:28;;;;;;;9.85;2.83;;;2.90;99.90;;;;;;493988;241;27509;-75
2021/12/10 01:13:33;;;;;;;2.75;2.17;;;2.90;99.90;;;;;;494031;241;27505;-75
2021/12/10 01:15:46;;;;;;;4.97;2.72;;;2.90;99.90;;;;;;493711;241;27509;-75
2021/12/10 01:24:38;;;;;;;2.47;2.20;;;2.80;99.90;;;;;;493979;241;29084;-76
2021/12/10 01:26:54;;;;;;;4.93;2.25;;;2.70;99.90;;;;;;493584;241;27557;-75
2021/12/10 01:28:39;;;;;;;3.95;2.40;;;2.60;99.90;;;;;;492570;241;27929;-74
2021/12/10 01:30:40;;;;;;;4.00;2.58;;;2.60;99.90;;;;;;494006;241;27505;-76
2021/12/10 01:32:41;;;;;;;3.30;2.20;;;2.50;99.90;;;;;;494009;241;27608;-74
2021/12/10 01:34:42;;;;;;;3.25;2.20;;;2.40;99.90;;;;;;493993;241;27487;-75
2021/12/10 01:36:44;;;;;;;2.60;1.90;;;2.30;99.90;;;;;;494007;241;27491;-75
2021/12/10 01:38:45;;;;;;;3.17;2.17;;;2.20;99.90;;;;;;493999;241;27450;-74
2021/12/10 01:40:48;;;;;;;6.68;2.60;;;2.10;99.90;;;;;;493989;241;27520;-74
2021/12/10 01:42:50;;;;;;;2.35;2.15;;;2.10;99.90;;;;;;493860;241;27564;-75
2021/12/10 01:44:50;;;;;;;7.47;2.30;;;2.00;99.90;;;;;;493812;241;27453;-75
2021/12/10 01:46:50;;;;;;;2.55;2.35;;;2.00;99.90;;;;;;493888;241;27513;-75
2021/12/10 01:48:51;;;;;;;2.65;2.45;;;2.00;99.90;;;;;;493978;241;27473;-74
2021/12/10 01:50:52;;;;;;;2.05;1.85;;;1.90;99.90;;;;;;493976;241;28035;-76
2021/12/10 01:52:54;;;;;;;2.33;2.20;;;1.90;99.90;;;;;;493980;241;28022;-74
2021/12/10 01:54:55;;;;;;;3.17;2.35;;;1.90;99.90;;;;;;493994;241;27948;-75
2021/12/10 01:56:57;;;;;;;4.18;2.30;;;1.90;99.90;;;;;;493984;241;28129;-75
2021/12/10 01:58:57;;;;;;;3.55;2.05;;;1.80;99.90;;;;;;494006;241;27565;-75
2021/12/10 02:00:59;;;;;;;7.87;3.37;;;1.90;99.90;;;;;;494010;241;27518;-74
2021/12/10 02:03:00;;;;;;;3.58;2.55;;;1.80;99.90;;;;;;494031;241;27524;-74
2021/12/10 02:05:01;;;;;;;4.22;2.80;;;1.80;99.90;;;;;;494044;241;27556;-75
2021/12/10 02:07:02;;;;;;;2.83;2.20;;;1.80;99.90;;;;;;493991;241;27500;-74
2021/12/10 02:09:04;;;;;;;4.05;2.55;;;1.70;99.90;;;;;;493991;241;27531;-74
2021/12/10 02:11:05;;;;;;;2.75;2.55;;;1.70;99.90;;;;;;493980;241;27652;-75
2021/12/10 02:13:06;;;;;;;2.40;2.20;;;1.70;99.90;;;;;;493996;241;27513;-74
2021/12/10 02:15:08;;;;;;;4.15;2.62;;;1.70;99.90;;;;;;494009;241;27494;-74
2021/12/10 02:17:09;;;;;;;2.78;2.25;;;1.70;99.90;;;;;;493896;241;27496;-74
2021/12/10 02:19:10;;;;;;;2.58;2.10;;;1.70;99.90;;;;;;493982;241;27977;-75
2021/12/10 02:21:11;;;;;;;4.25;2.80;;;1.70;99.90;;;;;;493984;241;28063;-74
2021/12/10 02:23:12;;;;;;;2.58;2.15;;;1.60;99.90;;;;;;493981;241;28023;-74
2021/12/10 02:25:14;;;;;;;4.22;2.28;;;1.60;99.90;;;;;;494047;241;27935;-74
2021/12/10 02:27:15;;;;;;;3.25;2.40;;;1.60;99.90;;;;;;494015;241;27601;-74
2021/12/10 02:29:16;;;;;;;3.85;2.10;;;1.60;99.90;;;;;;494027;237;27556;-74
2021/12/10 02:31:17;;;;;;;3.20;2.30;;;1.50;99.90;;;;;;494011;241;27527;-74
2021/12/10 02:33:19;;;;;;;2.37;2.12;;;1.60;99.90;;;;;;494048;241;27482;-74
2021/12/10 02:35:20;;;;;;;3.65;2.60;;;1.50;99.90;;;;;;494031;241;27620;-74
2021/12/10 02:37:21;;;;;;;3.50;2.60;;;1.50;99.90;;;;;;493999;241;27518;-75
2021/12/10 02:39:22;;;;;;;4.30;3.15;;;1.50;99.90;;;;;;494032;241;27473;-74
2021/12/10 02:41:24;;;;;;;3.25;2.45;;;1.40;99.90;;;;;;493999;241;27498;-74
2021/12/10 02:43:25;;;;;;;2.50;2.12;;;1.40;99.90;;;;;;493978;241;27899;-74
2021/12/10 02:45:26;;;;;;;2.55;2.33;;;1.40;99.90;;;;;;494021;241;27620;-74
2021/12/10 02:47:27;;;;;;;3.92;2.75;;;1.40;99.90;;;;;;494023;241;27505;-74
2021/12/10 02:49:29;;;;;;;8.57;2.60;;;1.30;99.90;;;;;;494003;241;27930;-74
2021/12/10 02:51:31;;;;;;;2.97;2.70;;;1.30;99.90;;;;;;494016;241;27977;-74
2021/12/10 02:53:35;;;;;;;8.30;3.08;;;1.30;99.90;;;;;;493917;241;28042;-74
2021/12/10 02:55:32;;;;;;;5.25;2.75;;;1.30;99.90;;;;;;493694;241;27946;-74
2021/12/10 02:57:34;;;;;;;3.65;2.80;;;1.30;99.90;;;;;;494038;241;27624;-74
2021/12/10 02:59:35;;;;;;;8.27;3.12;;;1.20;99.90;;;;;;494006;241;27473;-74
2021/12/10 03:01:36;;;;;;;3.47;2.80;;;1.20;99.90;;;;;;494011;241;27473;-74
2021/12/10 03:03:37;;;;;;;2.90;2.70;;;1.30;99.90;;;;;;494017;241;27458;-74
2021/12/10 03:05:39;;;;;;;4.18;2.35;;;1.30;99.90;;;;;;494014;241;27469;-74
2021/12/10 03:07:40;;;;;;;3.45;2.70;;;1.20;99.90;;;;;;494046;241;27880;-74
2021/12/10 03:09:41;;;;;;;3.83;2.87;;;1.20;99.90;;;;;;494051;241;27462;-74
2021/12/10 03:11:48;;;;;;;5.28;2.83;;;1.20;99.90;;;;;;494009;241;27515;-74
2021/12/10 03:13:46;;;;;;;4.75;2.30;;;1.20;99.90;;;;;;493819;241;27493;-74
2021/12/10 03:15:50;;;;;;;2.62;2.42;;;1.10;99.90;;;;;;493999;241;27604;-75
2021/12/10 03:17:49;;;;;;;3.75;2.40;;;1.10;99.90;;;;;;493856;241;27541;-75
2021/12/10 03:19:50;;;;;;;11.57;2.78;;;1.10;99.90;;;;;;494037;241;27542;-74
2021/12/10 03:21:51;;;;;;;2.25;2.15;;;1.00;99.90;;;;;;494066;241;27920;-74
2021/12/10 03:23:53;;;;;;;2.58;2.47;;;1.10;99.90;;;;;;494028;241;27965;-74
2021/12/10 03:25:54;;;;;;;2.28;2.17;;;1.00;99.90;;;;;;494040;241;28023;-74
2021/12/10 03:27:55;;;;;;;3.60;3.30;;;1.10;99.90;;;;;;494022;241;28019;-75
2021/12/10 03:29:56;;;;;;;3.33;2.47;;;1.10;99.90;;;;;;494051;241;27613;-75
2021/12/10 03:31:58;;;;;;;4.43;2.50;;;1.00;99.90;;;;;;494033;241;27457;-74
2021/12/10 03:33:59;;;;;;;3.40;2.45;;;1.00;99.90;;;;;;494001;241;27481;-74
2021/12/10 03:36:00;;;;;;;3.15;2.60;;;1.00;99.90;;;;;;493987;241;27521;-74
2021/12/10 03:38:01;;;;;;;4.32;2.70;;;1.00;99.90;;;;;;494001;241;27573;-74
2021/12/10 03:40:03;;;;;;;5.12;2.50;;;1.00;99.90;;;;;;494040;241;27516;-74
2021/12/10 03:42:04;;;;;;;3.75;2.25;;;1.00;99.90;;;;;;494003;241;27471;-74
2021/12/10 03:44:05;;;;;;;2.70;2.50;;;1.00;99.90;;;;;;494000;241;27597;-75
2021/12/10 03:46:06;;;;;;;2.95;2.10;;;1.00;99.90;;;;;;493995;241;27563;-75
2021/12/10 03:48:08;;;;;;;3.25;2.35;;;0.90;99.90;;;;;;494009;241;27498;-74
2021/12/10 03:50:09;;;;;;;3.47;2.30;;;0.90;99.90;;;;;;494043;241;28138;-74
2021/12/10 03:52:10;;;;;;;5.18;2.80;;;0.90;99.90;;;;;;494030;241;27990;-75
2021/12/10 03:54:11;;;;;;;2.75;2.40;;;1.00;99.90;;;;;;494033;241;28001;-75
2021/12/10 03:56:13;;;;;;;3.80;2.92;;;0.90;99.90;;;;;;494010;241;27492;-74
2021/12/10 03:58:14;;;;;;;2.55;2.35;;;0.90;99.90;;;;;;493990;241;27609;-74
2021/12/10 04:00:15;;;;;;;2.72;2.40;;;0.90;99.90;;;;;;494040;241;27499;-74
2021/12/10 04:02:16;;;;;;;2.40;2.30;;;0.90;99.90;;;;;;494030;241;27464;-75
2021/12/10 04:04:18;;;;;;;6.35;2.50;;;0.90;99.90;;;;;;494026;241;27505;-75
2021/12/10 04:06:19;;;;;;;6.57;2.35;;;0.90;99.90;;;;;;494013;241;27459;-75
2021/12/10 04:08:20;;;;;;;3.53;2.70;;;0.80;99.90;;;;;;494025;241;27544;-75
2021/12/10 04:10:23;;;;;;;4.72;2.40;;;0.80;99.90;;;;;;494057;241;27620;-75
2021/12/10 04:12:24;;;;;;;2.50;2.30;;;0.80;99.90;;;;;;494048;241;27512;-75
2021/12/10 04:14:25;;;;;;;2.70;2.47;;;0.80;99.90;;;;;;493999;241;27477;-74
2021/12/10 04:16:27;;;;;;;5.78;2.90;;;0.70;99.90;;;;;;494017;241;27531;-75
2021/12/10 04:18:28;;;;;;;3.50;2.72;;;0.70;99.90;;;;;;494013;241;28045;-75
2021/12/10 04:20:29;;;;;;;5.35;2.50;;;0.70;99.90;;;;;;494020;241;27922;-74
2021/12/10 04:22:32;;;;;;;4.25;2.60;;;0.70;99.90;;;;;;493990;241;29081;-75
2021/12/10 04:24:32;;;;;;;2.87;2.62;;;0.70;99.90;;;;;;493914;241;27944;-74
2021/12/10 04:26:33;;;;;;;2.85;2.40;;;0.70;99.90;;;;;;494021;241;27466;-75
2021/12/10 04:28:34;;;;;;;3.03;2.65;;;0.60;99.90;;;;;;494035;241;27579;-75
2021/12/10 04:30:40;;;;;;;4.22;2.60;;;0.60;99.90;;;;;;494015;241;27477;-75
2021/12/10 04:32:39;;;;;;;2.97;2.15;;;0.70;99.90;;;;;;493848;241;27466;-75
2021/12/10 04:34:41;;;;;;;2.97;2.67;;;0.70;99.90;;;;;;494007;241;27522;-75
2021/12/10 04:36:42;;;;;;;4.70;3.08;;;0.70;99.90;;;;;;493981;241;27477;-75
2021/12/10 04:38:43;;;;;;;4.35;2.65;;;0.70;99.90;;;;;;494015;241;27545;-75
2021/12/10 04:40:47;;;;;;;2.78;2.58;;;0.70;99.90;;;;;;493998;241;27571;-75
2021/12/10 04:42:46;;;;;;;3.65;2.87;;;0.60;99.90;;;;;;493829;241;27446;-75
2021/12/10 04:44:47;;;;;;;3.60;2.45;;;0.60;99.90;;;;;;494008;241;27998;-75
2021/12/10 04:46:48;;;;;;;2.92;2.40;;;0.60;99.90;;;;;;494003;241;28779;-74
2021/12/10 04:48:49;;;;;;;3.70;2.75;;;0.60;99.90;;;;;;494003;241;28016;-75
2021/12/10 04:50:51;;;;;;;3.60;2.67;;;0.60;99.90;;;;;;493985;241;29087;-74
2021/12/10 04:52:52;;;;;;;2.70;2.60;;;0.60;99.90;;;;;;493916;241;27466;-75
2021/12/10 04:54:53;;;;;;;3.40;3.10;;;0.60;99.90;;;;;;493908;241;27615;-75
2021/12/10 04:56:55;;;;;;;3.35;2.35;;;0.60;99.90;;;;;;493934;237;27511;-75
2021/12/10 04:58:56;;;;;;;4.47;2.60;;;0.60;99.90;;;;;;494021;241;27453;-74
2021/12/10 05:00:57;;;;;;;3.45;3.15;;;0.60;99.90;;;;;;493996;241;27497;-74
2021/12/10 05:03:00;;;;;;;3.30;3.00;;;0.60;99.90;;;;;;493991;241;27600;-74
2021/12/10 05:05:00;;;;;;;3.35;2.40;;;0.60;99.90;;;;;;493800;241;27623;-78
2021/12/10 05:07:03;;;;;;;3.08;2.30;;;0.60;99.90;;;;;;493979;241;27587;-74
2021/12/10 05:09:02;;;;;;;3.47;2.70;;;0.60;99.90;;;;;;493876;241;27473;-74
2021/12/10 05:11:03;;;;;;;2.50;2.40;;;0.60;99.90;;;;;;494032;241;27504;-75
2021/12/10 05:13:04;;;;;;;4.15;2.90;;;0.60;99.90;;;;;;494011;241;27937;-77
2021/12/10 05:15:06;;;;;;;3.15;2.85;;;0.60;99.90;;;;;;494010;241;27989;-74
2021/12/10 05:17:09;;;;;;;6.53;2.70;;;0.60;99.90;;;;;;493972;241;28707;-75
2021/12/10 05:19:09;;;;;;;4.68;2.75;;;0.60;99.90;;;;;;493914;241;28073;-74
2021/12/10 05:21:09;;;;;;;2.95;2.65;;;0.60;99.90;;;;;;493998;241;27483;-74
2021/12/10 05:23:11;;;;;;;2.87;2.67;;;0.60;99.90;;;;;;494011;241;27564;-75
2021/12/10 05:25:12;;;;;;;9.20;2.95;;;0.60;99.90;;;;;;493964;241;27588;-74
2021/12/10 05:27:13;;;;;;;2.55;2.00;;;0.60;99.90;;;;;;494003;241;27460;-74
2021/12/10 05:29:14;;;;;;;3.05;2.70;;;0.70;99.90;;;;;;494018;241;27583;-74
2021/12/10 05:31:16;;;;;;;2.72;2.53;;;0.60;99.90;;;;;;494019;241;27516;-74
2021/12/10 05:33:18;;;;;;;2.40;2.20;;;0.70;99.90;;;;;;493995;241;27523;-75
2021/12/10 05:35:18;;;;;;;2.62;2.42;;;0.70;99.90;;;;;;493958;241;27529;-75
2021/12/10 05:37:19;;;;;;;4.53;3.05;;;0.70;99.90;;;;;;493994;241;27478;-75
2021/12/10 05:39:23;;;;;;;3.90;2.42;;;0.70;99.90;;;;;;493973;241;27512;-75
2021/12/10 05:41:22;;;;;;;3.53;2.50;;;0.70;99.90;;;;;;493895;241;27525;-74
2021/12/10 05:43:23;;;;;;;5.15;3.08;;;0.70;99.90;;;;;;493979;241;27921;-75
2021/12/10 05:45:24;;;;;;;2.65;2.45;;;0.70;99.90;;;;;;493989;241;27972;-75
2021/12/10 05:47:26;;;;;;;2.50;2.30;;;0.70;99.90;;;;;;493958;241;28708;-75
2021/12/10 05:49:27;;;;;;;3.47;2.70;;;0.80;99.90;;;;;;494001;241;27473;-75
2021/12/10 05:51:28;;;;;;;3.20;2.30;;;0.80;99.90;;;;;;493994;241;27489;-75
2021/12/10 05:53:29;;;;;;;2.85;2.65;;;0.80;99.90;;;;;;493987;241;27470;-74
2021/12/10 05:55:31;;;;;;;3.45;2.33;;;0.80;99.90;;;;;;494019;241;27510;-75
2021/12/10 05:57:32;;;;;;;3.80;2.72;;;0.80;99.90;;;;;;494011;241;27513;-75
2021/12/10 05:59:33;;;;;;;2.30;2.10;;;0.80;99.90;;;;;;494039;241;27465;-75
2021/12/10 06:01:34;;;;;;;2.67;2.35;;;0.80;99.90;;;;;;494009;241;27517;-74
2021/12/10 06:03:36;;;;;;;2.33;2.12;;;0.80;99.90;;;;;;494043;241;27462;-74
2021/12/10 06:05:37;;;;;;;2.20;2.05;;;0.80;99.90;;;;;;494004;241;27498;-74
2021/12/10 06:07:41;;;;;;;6.85;2.17;;;0.90;99.90;;;;;;494032;241;27506;-74
2021/12/10 06:09:42;;;;;;;2.10;2.00;;;0.90;99.90;;;;;;494027;241;28782;-74
2021/12/10 06:11:43;;;;;;;5.43;2.12;;;0.90;99.90;;;;;;494039;241;28012;-74
2021/12/10 06:13:45;;;;;;;2.35;2.00;;;0.90;99.90;;;;;;494057;241;27528;-74
2021/12/10 06:15:46;;;;;;;3.72;2.33;;;0.90;99.90;;;;;;494049;241;27454;-74
2021/12/10 06:17:47;;;;;;;2.53;2.33;;;0.90;99.90;;;;;;494011;241;27522;-74
2021/12/10 06:19:48;;;;;;;2.70;2.25;;;0.90;99.90;;;;;;494041;241;27507;-74
2021/12/10 06:21:50;;;;;;;2.35;1.90;;;0.90;99.90;;;;;;494065;241;27465;-75
2021/12/10 06:23:51;;;;;;;4.22;2.50;;;0.90;99.90;;;;;;494037;241;27545;-74
2021/12/10 06:25:52;;;;;;;2.40;2.05;;;0.90;99.90;;;;;;494026;241;27512;-74
2021/12/10 06:27:53;;;;;;;4.78;2.50;;;0.90;99.90;;;;;;494013;241;27506;-74
2021/12/10 06:29:57;;;;;;;2.60;2.40;;;0.90;99.90;;;;;;494054;241;27527;-74
2021/12/10 06:31:57;;;;;;;5.97;2.40;;;0.90;99.90;;;;;;493925;241;27499;-74
2021/12/10 06:33:58;;;;;;;3.08;2.60;;;0.90;99.90;;;;;;493995;241;27473;-75
2021/12/10 06:36:00;;;;;;;1.95;1.73;;;0.90;99.90;;;;;;493935;241;27528;-74
2021/12/10 06:38:01;;;;;;;2.37;2.17;;;0.90;99.90;;;;;;493864;241;28795;-74
2021/12/10 06:40:02;;;;;;;2.40;2.10;;;0.90;99.90;;;;;;493854;241;27903;-75
2021/12/10 06:42:03;;;;;;;3.22;2.00;;;0.90;99.90;;;;;;493785;241;28029;-75
2021/12/10 06:44:06;;;;;;;3.00;2.70;;;0.90;99.90;;;;;;493846;241;27484;-75
2021/12/10 06:46:06;;;;;;;3.35;2.45;;;0.80;99.90;;;;;;493918;241;27497;-75
2021/12/10 06:48:07;;;;;;;5.87;3.30;;;0.80;99.90;;;;;;494042;237;27513;-74
2021/12/10 06:50:08;;;;;;;3.20;2.40;;;0.80;99.90;;;;;;494046;241;27509;-74
2021/12/10 06:52:10;;;;;;;4.43;2.60;;;0.80;99.90;;;;;;494026;241;27509;-75
2021/12/10 06:54:11;;;;;;;3.28;2.53;;;0.80;99.90;;;;;;494032;241;27865;-74
2021/12/10 06:56:13;;;;;;;4.30;2.70;;;0.80;99.90;;;;;;494022;241;27485;-74
2021/12/10 06:58:14;;;;;;;3.17;2.83;;;0.80;99.90;;;;;;494027;241;27590;-74
2021/12/10 07:00:15;;;;;;;3.92;2.15;;;0.70;99.90;;;;;;493991;241;27474;-74
2021/12/10 07:02:16;;;;;;;3.92;2.15;;;0.70;99.90;;;;;;494007;241;27501;-74
2021/12/10 07:04:17;;;;;;;3.40;2.30;;;0.70;99.90;;;;;;494055;241;27505;-75
2021/12/10 07:06:19;;;;;;;2.47;2.20;;;0.70;99.90;;;;;;494046;241;27597;-75
2021/12/10 07:08:20;;;;;;;3.65;2.35;;;0.80;99.90;;;;;;494041;241;27548;-74
2021/12/10 07:10:21;;;;;;;2.37;2.20;;;0.70;99.90;;;;;;494017;240;27533;-74
2021/12/10 07:12:22;;;;;;;2.08;1.98;;;0.70;99.90;;;;;;494006;241;27612;-75
2021/12/10 07:14:24;;;;;;;2.08;1.98;;;0.70;99.90;;;;;;494001;241;27532;-75
2021/12/10 07:16:25;;;;;;;3.03;2.10;;;0.70;99.90;;;;;;494007;241;27944;-75
2021/12/10 07:18:26;;;;;;;2.10;2.00;;;0.70;99.90;;;;;;494023;241;28047;-74
2021/12/10 07:20:27;;;;;;;2.53;2.33;;;0.70;99.90;;;;;;494036;241;27915;-75
2021/12/10 07:22:29;;;;;;;3.40;2.00;;;0.70;99.90;;;;;;494010;241;29086;-75
2021/12/10 07:24:30;;;;;;;2.00;1.90;;;0.80;99.90;;;;;;494030;241;27921;-74
2021/12/10 07:26:31;;;;;;;2.40;2.20;;;0.80;99.90;;;;;;494040;241;27505;-74
2021/12/10 07:28:32;;;;;;;2.65;2.33;;;0.70;99.90;;;;;;494016;241;27617;-74
2021/12/10 07:30:34;;;;;;;2.97;1.90;;;0.70;99.90;;;;;;493994;241;27460;-74
2021/12/10 07:32:35;;;;;;;2.92;1.85;;;0.70;99.90;;;;;;493988;241;27476;-74
2021/12/10 07:34:36;;;;;;;1.70;1.60;;;0.70;99.90;;;;;;494001;241;27478;-74
2021/12/10 07:36:41;;;;;;;2.55;2.00;;;0.70;99.90;;;;;;494043;241;27579;-75
2021/12/10 07:38:39;;;;;;;2.65;1.80;;;0.70;99.90;;;;;;493781;241;27674;-75
2021/12/10 07:40:40;;;;;;;2.20;1.90;;;0.70;99.90;;;;;;494012;241;27565;-76
2021/12/10 07:42:42;;;;;;;3.60;2.03;;;0.70;99.90;;;;;;494011;241;27496;-74
2021/12/10 07:44:43;;;;;;;1.90;1.80;;;0.70;99.90;;;;;;494009;241;27481;-75
2021/12/10 07:46:45;;;;;;;3.22;1.98;;;0.70;99.90;;;;;;494018;241;27509;-75
2021/12/10 07:48:48;;;;;;;2.47;2.03;;;0.80;99.90;;;;;;494016;241;27898;-75
2021/12/10 07:50:52;;;;;;;2.58;1.67;;;0.80;99.90;;;;;;493828;241;27976;-75
2021/12/10 07:52:50;;;;;;;2.15;2.00;;;0.90;99.90;;;;;;493562;241;27977;-75
2021/12/10 07:54:50;;;;;;;2.20;2.00;;;0.90;99.90;;;;;;493893;241;27948;-74
2021/12/10 07:56:51;;;;;;;2.30;2.10;;;1.00;99.90;;;;;;494024;241;27962;-74
2021/12/10 07:58:52;;;;;;;3.95;1.80;;;1.00;99.90;;;;;;494010;241;27472;-74
2021/12/10 08:00:53;;;;;;;4.62;1.95;;;1.10;99.90;;;;;;494028;238;27506;-75
2021/12/10 08:02:55;;;;;;;2.10;1.90;;;1.10;99.90;;;;;;493986;241;27548;-75
2021/12/10 08:04:56;;;;;;;2.40;2.20;;;1.10;99.90;;;;;;494020;241;27510;-75
2021/12/10 08:06:57;;;;;;;2.50;1.95;;;1.20;99.90;;;;;;494063;241;27518;-74
2021/12/10 08:08:58;;;;;;;2.28;2.08;;;1.20;99.90;;;;;;494014;237;27486;-75
2021/12/10 08:11:00;;;;;;;2.45;2.17;;;1.20;99.90;;;;;;494028;241;27612;-74
2021/12/10 08:13:01;;;;;;;3.00;2.40;;;1.30;99.90;;;;;;493999;241;27505;-74
2021/12/10 08:15:02;;;;;;;4.18;2.60;;;1.30;99.90;;;;;;493965;241;27613;-74
2021/12/10 08:17:03;;;;;;;4.95;2.58;;;1.40;99.90;;;;;;493990;241;27539;-74
2021/12/10 08:19:05;;;;;;;2.40;2.20;;;1.50;99.90;;;;;;493972;241;27974;-75
2021/12/10 08:21:06;;;;;;;4.32;2.83;;;1.50;99.90;;;;;;493979;241;27981;-74
2021/12/10 08:23:07;;;;;;;2.75;2.50;;;1.60;99.90;;;;;;493961;241;27922;-75
2021/12/10 08:25:08;;;;;;;3.15;2.50;;;1.60;99.90;;;;;;493974;241;29046;-74
2021/12/10 08:27:10;;;;;;;3.25;2.30;;;1.60;99.90;;;;;;494031;241;27587;-74
2021/12/10 08:29:11;;;;;;;2.30;2.10;;;1.70;99.90;;;;;;494006;241;27601;-75
2021/12/10 08:31:15;;;;;;;3.47;2.40;;;1.80;99.90;;;;;;494018;241;27607;-75
2021/12/10 08:33:14;;;;;;;3.00;2.60;;;1.90;99.90;;;;;;493761;241;27461;-75
2021/12/10 08:35:15;;;;;;;2.75;2.25;;;2.00;99.90;;;;;;493980;241;27478;-75
2021/12/10 08:37:16;;;;;;;3.10;2.30;;;2.00;99.90;;;;;;494008;241;27536;-75
2021/12/10 08:39:17;;;;;;;3.70;2.10;;;2.00;99.90;;;;;;494039;241;27481;-75
2021/12/10 08:41:18;;;;;;;7.93;2.60;;;2.00;99.90;;;;;;493999;241;27538;-75
2021/12/10 08:43:20;;;;;;;4.90;2.45;;;2.00;99.90;;;;;;493968;241;27510;-75
2021/12/10 08:45:21;;;;;;;7.07;3.22;;;2.00;99.90;;;;;;493995;237;27646;-75
2021/12/10 08:47:22;;;;;;;5.55;2.80;;;2.10;99.90;;;;;;493997;241;27957;-75
2021/12/10 08:49:23;;;;;;;6.65;3.08;;;2.10;99.90;;;;;;494009;241;27896;-75
2021/12/10 08:51:25;;;;;;;11.80;6.32;;;2.10;99.90;;;;;;494008;241;28096;-74
2021/12/10 08:53:26;;;;;;;13.48;6.20;;;2.00;99.90;;;;;;493938;241;28650;-75
2021/12/10 08:55:27;;;;;;;10.07;6.10;;;2.00;99.90;;;;;;493998;241;27457;-75
2021/12/10 08:57:30;;;;;;;12.05;6.05;;;2.00;99.90;;;;;;494008;241;27546;-75
2021/12/10 08:59:30;;;;;;;8.77;5.68;;;2.00;99.90;;;;;;493866;241;27544;-75
2021/12/10 09:01:31;;;;;;;11.43;6.12;;;2.10;99.90;;;;;;494007;241;27517;-74
2021/12/10 09:03:33;;;;;;;8.02;6.00;;;2.10;99.90;;;;;;494027;241;27576;-75
2021/12/10 09:05:34;;;;;;;8.55;5.40;;;2.20;99.90;;;;;;493996;241;27917;-75
2021/12/10 09:07:35;;;;;;;7.82;4.95;;;2.20;99.90;;;;;;493987;241;27977;-75
2021/12/10 09:09:36;;;;;;;6.93;4.40;;;2.20;99.90;;;;;;494000;241;28688;-75
2021/12/10 09:11:37;;;;;;;5.28;4.20;;;2.10;99.90;;;;;;494004;241;27912;-75
2021/12/10 09:13:39;;;;;;;8.65;4.55;;;2.10;99.90;;;;;;493991;241;27509;-74
2021/12/10 09:15:40;;;;;;;7.70;3.95;;;2.10;99.90;;;;;;493988;241;27456;-75
2021/12/10 09:17:41;;;;;;;6.35;3.83;;;2.20;99.90;;;;;;493953;241;27516;-75
2021/12/10 09:19:42;;;;;;;9.57;3.65;;;2.20;99.90;;;;;;493972;241;27514;-75
2021/12/10 09:21:44;;;;;;;4.97;3.25;;;2.20;99.90;;;;;;494007;241;27452;-75
2021/12/10 09:23:45;;;;;;;3.70;2.90;;;2.20;99.90;;;;;;494017;241;27513;-74
2021/12/10 09:25:46;;;;;;;3.37;2.67;;;2.20;99.90;;;;;;493983;241;27588;-75
2021/12/10 09:27:47;;;;;;;5.93;2.87;;;2.20;99.90;;;;;;493974;241;27619;-75
2021/12/10 09:29:49;;;;;;;4.65;2.37;;;2.20;99.90;;;;;;494052;241;27637;-75
2021/12/10 09:31:50;;;;;;;2.62;2.28;;;2.20;99.90;;;;;;494005;241;27473;-74
2021/12/10 09:33:51;;;;;;;1.90;1.80;;;2.20;99.90;;;;;;494014;241;27957;-75
2021/12/10 09:35:52;;;;;;;3.70;2.20;;;2.20;99.90;;;;;;494002;241;28042;-75
2021/12/10 09:37:54;;;;;;;5.28;2.33;;;2.10;99.90;;;;;;494010;241;27955;-75
2021/12/10 09:39:55;;;;;;;3.95;2.00;;;2.10;99.90;;;;;;494044;241;28048;-74
2021/12/10 09:41:56;;;;;;;5.78;2.70;;;2.10;99.90;;;;;;494016;241;27466;-74
2021/12/10 09:43:57;;;;;;;2.53;2.20;;;2.00;99.90;;;;;;494027;241;27519;-75
2021/12/10 09:45:59;;;;;;;7.20;3.03;;;2.10;99.90;;;;;;494002;241;27462;-75
2021/12/10 09:48:00;;;;;;;5.65;2.97;;;1.90;99.90;;;;;;494006;241;27485;-75
2021/12/10 09:50:01;;;;;;;3.53;2.65;;;1.90;99.90;;;;;;494069;241;27560;-74
2021/12/10 09:52:02;;;;;;;4.50;3.00;;;2.10;99.90;;;;;;494011;241;27565;-75
2021/12/10 09:54:05;;;;;;;7.07;2.58;;;2.10;99.90;;;;;;494041;241;27521;-75
2021/12/10 09:56:05;;;;;;;4.40;2.62;;;2.10;99.90;;;;;;493971;241;27550;-75
2021/12/10 09:58:06;;;;;;;3.78;2.75;;;2.20;99.90;;;;;;494038;241;27494;-75
2021/12/10 10:00:08;;;;;;;2.40;2.20;;;2.20;99.90;;;;;;494052;241;27504;-75
2021/12/10 10:02:09;;;;;;;2.95;2.72;;;2.00;99.90;;;;;;493969;241;28047;-74
2021/12/10 10:04:10;;;;;;;2.60;2.40;;;2.10;99.90;;;;;;494026;241;27989;-75
2021/12/10 10:06:11;;;;;;;3.47;2.95;;;2.00;99.90;;;;;;494014;241;27973;-75
2021/12/10 10:08:12;;;;;;;4.35;2.47;;;2.10;99.90;;;;;;494034;241;28023;-74
2021/12/10 10:10:14;;;;;;;2.35;2.15;;;1.90;99.90;;;;;;494014;241;27585;-75
2021/12/10 10:12:15;;;;;;;2.70;2.50;;;1.90;99.90;;;;;;494011;241;27579;-75
2021/12/10 10:14:16;;;;;;;2.92;2.00;;;2.00;99.90;;;;;;494007;241;27609;-74
2021/12/10 10:16:18;;;;;;;2.50;2.00;;;2.00;99.90;;;;;;494013;241;27550;-75
2021/12/10 10:18:20;;;;;;;2.35;2.12;;;2.00;99.90;;;;;;494051;241;27553;-75
2021/12/10 10:20:20;;;;;;;2.33;2.12;;;2.00;99.90;;;;;;493982;241;27580;-75
2021/12/10 10:22:21;;;;;;;2.90;2.70;;;1.90;99.90;;;;;;494013;241;27534;-75
2021/12/10 10:24:22;;;;;;;2.45;2.12;;;2.00;99.90;;;;;;494014;241;27535;-74
2021/12/10 10:26:25;;;;;;;2.05;1.85;;;2.00;99.90;;;;;;494008;241;27838;-75
2021/12/10 10:28:25;;;;;;;3.62;2.87;;;2.00;99.90;;;;;;493953;241;27485;-74
2021/12/10 10:30:28;;;;;;;3.00;2.42;;;1.90;99.90;;;;;;494049;241;27517;-75
2021/12/10 10:32:28;;;;;;;5.97;2.80;;;1.90;99.90;;;;;;493905;241;27988;-75
2021/12/10 10:34:29;;;;;;;2.45;2.25;;;1.90;99.90;;;;;;493968;241;27965;-74
2021/12/10 10:36:30;;;;;;;6.30;4.62;;;1.90;99.90;;;;;;494035;241;28063;-74
2021/12/10 10:38:31;;;;;;;7.90;5.00;;;1.90;99.90;;;;;;494036;241;27629;-74
2021/12/10 10:40:32;;;;;;;6.87;4.40;;;1.90;99.90;;;;;;493988;241;27505;-75
2021/12/10 10:42:34;;;;;;;4.95;4.03;;;1.90;99.90;;;;;;493991;241;27466;-74
2021/12/10 10:44:35;;;;;;;6.32;3.90;;;1.90;99.90;;;;;;493982;241;27497;-75
2021/12/10 10:46:36;;;;;;;5.00;3.60;;;1.90;99.90;;;;;;494009;241;27603;-74